Time;durP1;ratioP1;P1;durP2;ratioP2;P2;SDS_P1;SDS_P2;PMS_P1;PMS_P2;Temp;Humidity;BMP_temperature;BMP_pressure;BME280_temperature;BME280_humidity;BME280_pressure;Samples;Min_cycle;Max_cycle;Signal;HPM_P1;HPM_P2
2022/12/06 00:00:48;;;;;;;8.50;7.10;;;5.50;99.90;;;;;;2054957;28;20053;-69
2022/12/06 00:01:49;;;;;;;9.60;7.40;;;5.40;99.90;;;;;;2055597;28;20027;-69
2022/12/06 00:02:50;;;;;;;8.75;6.72;;;5.40;99.90;;;;;;2054824;28;20563;-69
2022/12/06 00:03:53;;;;;;;8.35;6.82;;;5.40;99.90;;;;;;2054666;28;20019;-69
2022/12/06 00:04:54;;;;;;;8.02;6.57;;;5.50;99.90;;;;;;2054866;28;20674;-69
2022/12/06 00:06:09;;;;;;;9.50;6.97;;;5.40;99.90;;;;;;2054788;28;20031;-69
2022/12/06 00:07:11;;;;;;;9.15;7.10;;;5.50;99.90;;;;;;2055638;28;20034;-70
2022/12/06 00:08:12;;;;;;;8.65;6.82;;;5.50;99.90;;;;;;2055278;28;20135;-69
2022/12/06 00:09:25;;;;;;;10.68;7.40;;;5.50;99.90;;;;;;2055522;28;20023;-68
2022/12/06 00:10:26;;;;;;;10.13;7.60;;;5.50;99.90;;;;;;2055396;28;20118;-68
2022/12/06 00:11:31;;;;;;;9.07;7.47;;;5.50;99.90;;;;;;2054613;28;20113;-68
2022/12/06 00:12:32;;;;;;;8.90;7.10;;;5.50;99.90;;;;;;2054846;28;20127;-68
2022/12/06 00:13:34;;;;;;;8.63;6.82;;;5.50;99.90;;;;;;2054731;28;20023;-68
2022/12/06 00:14:34;;;;;;;9.45;7.40;;;5.50;99.90;;;;;;2054602;28;20023;-68
2022/12/06 00:15:36;;;;;;;10.15;7.72;;;5.50;99.90;;;;;;2055220;28;20034;-68
2022/12/06 00:16:36;;;;;;;11.27;7.60;;;5.50;99.90;;;;;;2055433;28;20049;-68
2022/12/06 00:17:37;;;;;;;8.68;7.18;;;5.40;99.90;;;;;;2055287;28;20481;-69
2022/12/06 00:18:39;;;;;;;8.95;7.45;;;5.40;99.90;;;;;;2055414;28;20034;-68
2022/12/06 00:19:40;;;;;;;8.05;6.78;;;5.50;99.90;;;;;;2055365;28;20417;-68
2022/12/06 00:20:40;;;;;;;9.13;6.90;;;5.50;99.90;;;;;;2055253;28;20142;-69
2022/12/06 00:21:41;;;;;;;8.35;7.00;;;5.40;99.90;;;;;;2055360;28;20035;-67
2022/12/06 00:22:44;;;;;;;9.13;7.05;;;5.50;99.90;;;;;;2055429;28;20042;-69
2022/12/06 00:23:47;;;;;;;8.88;6.95;;;5.50;99.90;;;;;;2054881;28;20027;-68
2022/12/06 00:24:47;;;;;;;8.68;7.00;;;5.50;99.90;;;;;;2055257;28;20023;-68
2022/12/06 00:25:48;;;;;;;7.93;6.72;;;5.50;99.90;;;;;;2055514;28;20027;-68
2022/12/06 00:26:49;;;;;;;9.65;7.45;;;5.40;99.90;;;;;;2055182;28;20029;-68
2022/12/06 00:27:50;;;;;;;9.32;7.10;;;5.50;99.90;;;;;;2055221;28;20010;-68
2022/12/06 00:28:59;;;;;;;9.23;7.03;;;5.50;99.90;;;;;;2055253;28;20058;-68
2022/12/06 00:29:59;;;;;;;8.93;7.00;;;5.50;99.90;;;;;;2054638;28;20136;-69
2022/12/06 00:31:02;;;;;;;8.05;6.80;;;5.50;99.90;;;;;;2054614;28;20556;-69
2022/12/06 00:32:03;;;;;;;8.13;6.72;;;5.50;99.90;;;;;;2055275;28;20065;-69
2022/12/06 00:33:04;;;;;;;8.80;6.88;;;5.50;99.90;;;;;;2055212;28;20062;-69
2022/12/06 00:34:05;;;;;;;9.48;7.47;;;5.50;99.90;;;;;;2055217;28;20038;-68
2022/12/06 00:35:06;;;;;;;9.68;7.57;;;5.50;99.90;;;;;;2054959;28;20061;-69
2022/12/06 00:36:10;;;;;;;9.45;7.60;;;5.50;99.90;;;;;;2054520;28;20035;-70
2022/12/06 00:37:11;;;;;;;8.77;7.13;;;5.50;99.90;;;;;;2055477;28;20122;-70
2022/12/06 00:38:11;;;;;;;9.52;7.32;;;5.50;99.90;;;;;;2054669;28;20026;-70
2022/12/06 00:39:15;;;;;;;9.68;7.20;;;5.50;99.90;;;;;;2054942;28;20038;-70
2022/12/06 00:40:15;;;;;;;11.52;8.45;;;5.50;99.90;;;;;;2055375;28;20093;-70
2022/12/06 00:41:18;;;;;;;10.73;7.63;;;5.50;99.90;;;;;;2054930;28;20545;-70
2022/12/06 00:42:19;;;;;;;10.25;8.00;;;5.50;99.90;;;;;;2054546;28;20027;-69
2022/12/06 00:43:20;;;;;;;11.93;8.60;;;5.50;99.90;;;;;;2057257;28;20486;-69
2022/12/06 00:44:20;;;;;;;9.75;7.53;;;5.50;99.90;;;;;;2054794;28;20043;-70
2022/12/06 00:45:21;;;;;;;10.43;7.72;;;5.50;99.90;;;;;;2054556;28;20700;-68
2022/12/06 00:46:25;;;;;;;9.90;7.35;;;5.50;99.90;;;;;;2054607;28;20126;-70
2022/12/06 00:47:26;;;;;;;9.60;7.55;;;5.50;99.90;;;;;;2054613;28;20038;-70
2022/12/06 00:48:27;;;;;;;9.13;7.13;;;5.50;99.90;;;;;;2054638;28;20105;-69
2022/12/06 00:49:28;;;;;;;10.80;7.38;;;5.50;99.90;;;;;;2055075;28;20672;-68
2022/12/06 00:50:28;;;;;;;9.23;7.40;;;5.40;99.90;;;;;;2055333;28;20078;-68
2022/12/06 00:51:31;;;;;;;9.70;7.43;;;5.50;99.90;;;;;;2055283;28;20110;-68
2022/12/06 00:52:32;;;;;;;9.23;7.15;;;5.40;99.90;;;;;;2055419;28;20027;-70
2022/12/06 00:53:33;;;;;;;8.68;6.85;;;5.50;99.90;;;;;;2055456;28;20042;-70
2022/12/06 00:54:33;;;;;;;9.55;7.43;;;5.50;99.90;;;;;;2055188;28;20019;-70
2022/12/06 00:55:34;;;;;;;8.82;7.10;;;5.50;99.90;;;;;;2055102;28;20414;-70
2022/12/06 00:56:35;;;;;;;8.27;6.97;;;5.50;99.90;;;;;;2055098;28;20624;-68
2022/12/06 00:57:36;;;;;;;9.77;7.07;;;5.50;99.90;;;;;;2054497;28;20042;-68
2022/12/06 00:58:37;;;;;;;8.02;6.80;;;5.50;99.90;;;;;;2054290;28;20029;-69
2022/12/06 00:59:38;;;;;;;9.25;6.75;;;5.50;99.90;;;;;;2055095;28;20035;-69
2022/12/06 01:00:38;;;;;;;8.93;7.00;;;5.50;99.90;;;;;;2054313;28;20031;-69
2022/12/06 01:01:40;;;;;;;8.43;6.82;;;5.40;99.90;;;;;;2046209;28;20030;-68
2022/12/06 01:02:40;;;;;;;9.60;7.32;;;5.50;99.90;;;;;;2054508;28;20027;-69
2022/12/06 01:03:42;;;;;;;9.32;7.40;;;5.50;99.90;;;;;;2054901;28;20065;-68
2022/12/06 01:04:43;;;;;;;9.13;7.00;;;5.40;99.90;;;;;;2054929;28;20508;-69
2022/12/06 01:05:48;;;;;;;10.75;7.45;;;5.40;99.90;;;;;;2054747;28;20054;-70
2022/12/06 01:06:49;;;;;;;10.85;7.75;;;5.50;99.90;;;;;;2047194;29;20130;-68
2022/12/06 01:07:49;;;;;;;10.65;7.30;;;5.40;99.90;;;;;;2047101;28;20050;-70
2022/12/06 01:08:50;;;;;;;9.32;7.15;;;5.50;99.90;;;;;;2046716;29;20482;-68
2022/12/06 01:09:51;;;;;;;9.07;7.35;;;5.50;99.90;;;;;;2046651;29;20027;-68
2022/12/06 01:10:53;;;;;;;8.88;6.72;;;5.50;99.90;;;;;;2046677;28;20066;-70
2022/12/06 01:11:54;;;;;;;9.70;7.10;;;5.50;99.90;;;;;;2047617;28;20031;-70
2022/12/06 01:12:55;;;;;;;8.85;7.20;;;5.40;99.90;;;;;;2048911;29;20035;-70
2022/12/06 01:13:56;;;;;;;8.68;6.80;;;5.40;99.90;;;;;;2048595;28;20039;-69
2022/12/06 01:14:56;;;;;;;8.10;6.68;;;5.40;99.90;;;;;;2046509;29;20595;-70
2022/12/06 01:16:11;;;;;;;7.93;6.35;;;5.40;99.90;;;;;;2038454;29;20028;-70
2022/12/06 01:17:11;;;;;;;9.02;6.93;;;5.40;99.90;;;;;;2046621;28;20027;-68
2022/12/06 01:18:12;;;;;;;8.32;6.50;;;5.40;99.90;;;;;;2046456;28;20027;-67
2022/12/06 01:19:13;;;;;;;8.90;7.03;;;5.40;99.90;;;;;;2047075;28;20054;-67
2022/12/06 01:20:13;;;;;;;9.48;7.05;;;5.40;99.90;;;;;;2046440;29;20039;-68
2022/12/06 01:21:17;;;;;;;8.13;6.40;;;5.40;99.90;;;;;;2046458;28;20038;-68
2022/12/06 01:22:17;;;;;;;8.55;6.90;;;5.40;99.90;;;;;;2053843;28;20073;-68
2022/12/06 01:23:18;;;;;;;9.25;7.22;;;5.40;99.90;;;;;;2054752;28;20173;-70
2022/12/06 01:24:19;;;;;;;9.75;7.53;;;5.40;99.90;;;;;;2054866;28;20057;-68
2022/12/06 01:25:19;;;;;;;10.10;7.30;;;5.40;99.90;;;;;;2056425;28;20062;-70
2022/12/06 01:26:24;;;;;;;9.10;7.22;;;5.40;99.90;;;;;;2056510;28;20035;-68
2022/12/06 01:27:25;;;;;;;8.68;7.28;;;5.40;99.90;;;;;;2057173;28;20019;-69
2022/12/06 01:28:26;;;;;;;9.93;7.72;;;5.40;99.90;;;;;;2057043;28;20044;-68
2022/12/06 01:29:26;;;;;;;9.25;7.28;;;5.40;99.90;;;;;;2055199;28;20023;-69
2022/12/06 01:30:28;;;;;;;9.43;7.22;;;5.40;99.90;;;;;;2054778;28;20030;-69
2022/12/06 01:31:29;;;;;;;10.55;7.30;;;5.40;99.90;;;;;;2055190;28;20118;-69
2022/12/06 01:32:30;;;;;;;9.70;7.45;;;5.40;99.90;;;;;;2055218;28;20394;-70
2022/12/06 01:33:30;;;;;;;8.82;6.80;;;5.40;99.90;;;;;;2054493;28;20117;-70
2022/12/06 01:34:31;;;;;;;9.85;7.47;;;5.40;99.90;;;;;;2054433;28;20027;-70
2022/12/06 01:35:32;;;;;;;9.43;7.78;;;5.30;99.90;;;;;;2055040;28;20019;-68
2022/12/06 01:36:32;;;;;;;10.23;7.53;;;5.30;99.90;;;;;;2054534;28;20096;-68
2022/12/06 01:37:33;;;;;;;9.52;7.55;;;5.30;99.90;;;;;;2054877;28;20022;-68
2022/12/06 01:38:34;;;;;;;10.18;7.65;;;5.30;99.90;;;;;;2054800;28;20568;-68
2022/12/06 01:39:34;;;;;;;9.07;7.10;;;5.30;99.90;;;;;;2054907;28;20018;-68
2022/12/06 01:40:44;;;;;;;8.25;6.95;;;5.30;99.90;;;;;;2054859;28;20049;-68
2022/12/06 01:41:45;;;;;;;9.85;6.90;;;5.30;99.90;;;;;;2054834;28;20054;-68
2022/12/06 01:42:45;;;;;;;8.73;6.95;;;5.30;99.90;;;;;;2054881;28;20031;-68
2022/12/06 01:43:47;;;;;;;8.32;6.65;;;5.40;99.90;;;;;;2054811;28;20414;-68
2022/12/06 01:44:52;;;;;;;8.55;6.95;;;5.30;99.90;;;;;;2054775;28;20031;-68
2022/12/06 01:45:53;;;;;;;9.65;7.47;;;5.30;99.90;;;;;;2054787;28;20056;-70
2022/12/06 01:46:53;;;;;;;10.73;7.57;;;5.30;99.90;;;;;;2054534;28;20030;-68
2022/12/06 01:47:54;;;;;;;10.43;7.15;;;5.30;99.90;;;;;;2047754;28;20122;-70
2022/12/06 01:49:22;;;;;;;9.05;7.05;;;5.30;99.90;;;;;;2055748;28;20018;-68
2022/12/06 01:50:31;;;;;;;9.20;7.30;;;5.30;99.90;;;;;;2056642;28;20403;-68
2022/12/06 01:51:33;;;;;;;8.63;6.93;;;5.30;99.90;;;;;;2055798;28;20058;-68
2022/12/06 01:52:38;;;;;;;8.57;7.00;;;5.30;99.90;;;;;;2055698;28;20023;-68
2022/12/06 01:53:42;;;;;;;9.88;7.35;;;5.30;99.90;;;;;;2056442;28;20481;-68
2022/12/06 01:54:44;;;;;;;8.77;7.35;;;5.30;99.90;;;;;;2056399;28;20015;-68
2022/12/06 01:55:45;;;;;;;10.55;7.85;;;5.30;99.90;;;;;;2055501;28;20089;-70
2022/12/06 01:56:47;;;;;;;9.48;7.50;;;5.30;99.90;;;;;;2055776;28;20030;-70
2022/12/06 01:57:51;;;;;;;11.13;8.02;;;5.30;99.90;;;;;;2055575;28;20023;-69
2022/12/06 01:58:54;;;;;;;9.23;7.25;;;5.30;99.90;;;;;;2048014;29;20031;-69
2022/12/06 01:59:54;;;;;;;11.38;7.57;;;5.30;99.90;;;;;;2049081;28;20031;-69
2022/12/06 02:00:55;;;;;;;9.48;7.18;;;5.30;99.90;;;;;;2055849;28;20129;-69
2022/12/06 02:01:56;;;;;;;10.02;7.25;;;5.30;99.90;;;;;;2056447;28;20105;-69
2022/12/06 02:02:59;;;;;;;9.13;7.07;;;5.30;99.90;;;;;;2056440;28;20170;-69
2022/12/06 02:04:00;;;;;;;9.75;7.43;;;5.30;99.90;;;;;;2056448;28;20110;-69
2022/12/06 02:05:02;;;;;;;10.82;7.40;;;5.30;99.90;;;;;;2056412;28;20114;-69
2022/12/06 02:06:05;;;;;;;10.65;7.60;;;5.40;99.90;;;;;;2056188;28;20023;-69
2022/12/06 02:07:07;;;;;;;10.43;7.30;;;5.30;99.90;;;;;;2055520;28;20686;-69
2022/12/06 02:08:08;;;;;;;9.05;6.93;;;5.30;99.90;;;;;;2055507;28;20110;-70
2022/12/06 02:09:10;;;;;;;9.82;7.00;;;5.30;99.90;;;;;;2056413;28;20070;-70
2022/12/06 02:10:11;;;;;;;10.05;7.30;;;5.30;99.90;;;;;;2056272;28;20031;-69
2022/12/06 02:11:12;;;;;;;10.75;7.78;;;5.30;99.90;;;;;;2056401;28;20038;-69
2022/12/06 02:12:14;;;;;;;10.25;7.43;;;5.30;99.90;;;;;;2055376;28;20035;-69
2022/12/06 02:13:15;;;;;;;9.70;7.40;;;5.30;99.90;;;;;;2055660;28;20137;-68
2022/12/06 02:14:21;;;;;;;9.98;7.57;;;5.30;99.90;;;;;;2056345;28;20030;-67
2022/12/06 02:15:51;;;;;;;10.35;7.80;;;5.30;99.90;;;;;;2055548;28;20105;-71
2022/12/06 02:17:21;;;;;;;10.85;7.60;;;5.30;99.90;;;;;;2042920;28;20035;-70
2022/12/06 02:18:39;;;;;;;11.60;8.30;;;5.30;99.90;;;;;;2056196;28;20168;-69
2022/12/06 02:19:48;;;;;;;10.50;7.63;;;5.30;99.90;;;;;;2056213;28;20031;-72
2022/12/06 02:21:17;;;;;;;10.05;7.63;;;5.30;99.90;;;;;;2056157;28;20030;-68
2022/12/06 02:22:28;;;;;;;12.73;8.40;;;5.30;99.90;;;;;;2062909;28;20034;-69
2022/12/06 02:23:46;;;;;;;11.07;8.65;;;5.30;99.90;;;;;;2056393;28;20038;-69
2022/12/06 02:25:13;;;;;;;11.90;8.05;;;5.30;99.90;;;;;;2056431;28;20350;-70
2022/12/06 02:26:16;;;;;;;11.07;8.25;;;5.30;99.90;;;;;;2056348;28;20158;-70
2022/12/06 02:27:33;;;;;;;9.98;7.65;;;5.30;99.90;;;;;;2055895;28;20030;-69
2022/12/06 02:28:52;;;;;;;9.57;7.53;;;5.30;99.90;;;;;;2056194;28;20306;-69
2022/12/06 02:30:07;;;;;;;10.80;7.95;;;5.30;99.90;;;;;;2055767;28;20118;-69
2022/12/06 02:31:12;;;;;;;12.43;8.60;;;5.30;99.90;;;;;;2056373;28;20046;-69
2022/12/06 02:32:34;;;;;;;10.20;7.75;;;5.30;99.90;;;;;;2056945;28;20080;-70
2022/12/06 02:33:39;;;;;;;12.48;8.48;;;5.30;99.90;;;;;;2056893;28;20030;-70
2022/12/06 02:34:48;;;;;;;11.32;8.35;;;5.30;99.90;;;;;;2057354;28;20034;-68
2022/12/06 02:36:05;;;;;;;11.10;8.20;;;5.30;99.90;;;;;;2062253;28;20026;-69
2022/12/06 02:37:30;;;;;;;11.27;8.50;;;5.20;99.90;;;;;;2055723;28;20108;-69
2022/12/06 02:38:48;;;;;;;12.18;8.27;;;5.20;99.90;;;;;;2055561;28;20180;-69
2022/12/06 02:39:51;;;;;;;10.98;7.85;;;5.20;99.90;;;;;;2056237;28;20026;-69
2022/12/06 02:40:57;;;;;;;10.60;7.82;;;5.20;99.90;;;;;;2056264;28;20126;-69
2022/12/06 02:42:23;;;;;;;12.27;8.32;;;5.20;99.90;;;;;;2056334;28;20026;-69
2022/12/06 02:43:33;;;;;;;14.05;9.95;;;5.20;99.90;;;;;;2056239;28;20038;-69
2022/12/06 02:44:41;;;;;;;14.88;9.30;;;5.20;99.90;;;;;;2055627;28;20049;-69
2022/12/06 02:45:47;;;;;;;14.13;8.98;;;5.20;99.90;;;;;;2056795;28;20109;-69
2022/12/06 02:46:50;;;;;;;13.05;9.57;;;5.20;99.90;;;;;;2057094;28;20416;-69
2022/12/06 02:47:54;;;;;;;16.35;9.95;;;5.20;99.90;;;;;;2055744;28;20050;-69
2022/12/06 02:48:58;;;;;;;13.38;9.55;;;5.20;99.90;;;;;;2047615;29;20020;-69
2022/12/06 02:50:00;;;;;;;13.45;10.00;;;5.20;99.90;;;;;;2047884;28;20019;-69
2022/12/06 02:51:11;;;;;;;13.40;9.23;;;5.20;99.90;;;;;;2048156;28;20070;-69
2022/12/06 02:52:13;;;;;;;14.45;9.10;;;5.20;99.90;;;;;;2050280;28;20031;-70
2022/12/06 02:53:18;;;;;;;12.90;9.45;;;5.20;99.90;;;;;;2056134;28;20346;-68
2022/12/06 02:54:20;;;;;;;13.50;9.35;;;5.20;99.90;;;;;;2055799;28;20054;-69
2022/12/06 02:55:23;;;;;;;13.77;9.43;;;5.20;99.90;;;;;;2055953;28;20545;-69
2022/12/06 02:56:24;;;;;;;14.27;9.75;;;5.20;99.90;;;;;;2055608;28;20504;-68
2022/12/06 02:57:44;;;;;;;14.98;10.48;;;5.20;99.90;;;;;;2055236;28;20027;-69
2022/12/06 02:58:46;;;;;;;14.80;10.10;;;5.20;99.90;;;;;;2054615;28;20030;-70
2022/12/06 02:59:51;;;;;;;14.93;10.20;;;5.20;99.90;;;;;;2056060;28;20031;-69
2022/12/06 03:00:57;;;;;;;14.55;9.93;;;5.10;99.90;;;;;;2055894;28;20035;-70
2022/12/06 03:02:01;;;;;;;12.88;9.57;;;5.20;99.90;;;;;;2055574;28;20058;-69
2022/12/06 03:03:30;;;;;;;14.13;10.25;;;5.20;99.90;;;;;;2055626;28;20023;-70
2022/12/06 03:04:46;;;;;;;13.70;9.23;;;5.20;99.90;;;;;;2063203;28;20069;-69
2022/12/06 03:06:02;;;;;;;13.32;9.38;;;5.20;99.90;;;;;;2061265;28;20053;-69
2022/12/06 03:07:24;;;;;;;12.55;8.80;;;5.20;99.90;;;;;;2055904;28;20433;-69
2022/12/06 03:08:52;;;;;;;16.38;10.20;;;5.20;99.90;;;;;;2056040;28;20027;-69
2022/12/06 03:10:16;;;;;;;14.82;9.75;;;5.20;99.90;;;;;;2055971;28;20107;-69
2022/12/06 03:11:17;;;;;;;14.20;9.98;;;5.20;99.90;;;;;;2058209;28;20401;-69
2022/12/06 03:12:29;;;;;;;12.40;9.27;;;5.20;99.90;;;;;;2055832;28;20038;-70
2022/12/06 03:13:56;;;;;;;12.32;9.32;;;5.20;99.90;;;;;;2055444;28;20050;-70
2022/12/06 03:15:20;;;;;;;15.18;9.82;;;5.20;99.90;;;;;;2056154;28;20031;-69
2022/12/06 03:16:27;;;;;;;13.27;9.15;;;5.20;99.90;;;;;;2055733;28;20113;-69
2022/12/06 03:17:30;;;;;;;12.13;9.18;;;5.20;99.90;;;;;;2055921;28;20058;-69
2022/12/06 03:18:33;;;;;;;13.25;9.23;;;5.20;99.90;;;;;;2055795;28;20434;-69
2022/12/06 03:19:39;;;;;;;12.30;8.98;;;5.20;99.90;;;;;;2055931;28;20445;-70
2022/12/06 03:20:53;;;;;;;13.10;9.57;;;5.20;99.90;;;;;;2056033;28;20023;-69
2022/12/06 03:22:21;;;;;;;13.70;9.68;;;5.20;99.90;;;;;;2056020;28;20098;-69
2022/12/06 03:23:38;;;;;;;17.00;10.63;;;5.20;99.90;;;;;;2056133;28;20034;-69
2022/12/06 03:24:40;;;;;;;13.95;9.98;;;5.20;99.90;;;;;;2055938;28;20027;-69
2022/12/06 03:25:44;;;;;;;14.32;9.57;;;5.20;99.90;;;;;;2054912;28;20023;-69
2022/12/06 03:26:48;;;;;;;13.88;9.70;;;5.20;99.90;;;;;;2055230;28;20069;-70
2022/12/06 03:27:54;;;;;;;13.82;9.98;;;5.20;99.90;;;;;;2055819;28;20027;-69
2022/12/06 03:28:58;;;;;;;16.02;10.48;;;5.20;99.90;;;;;;2055989;28;20073;-69
2022/12/06 03:30:03;;;;;;;13.02;9.35;;;5.20;99.90;;;;;;2055680;28;20482;-69
2022/12/06 03:31:10;;;;;;;13.65;9.93;;;5.20;99.90;;;;;;2055772;28;20118;-69
2022/12/06 03:32:14;;;;;;;16.17;10.60;;;5.20;99.90;;;;;;2059779;28;20027;-70
2022/12/06 03:33:17;;;;;;;15.60;10.48;;;5.20;99.90;;;;;;2055935;28;20030;-69
2022/12/06 03:34:27;;;;;;;14.18;9.75;;;5.20;99.90;;;;;;2055672;28;20629;-69
2022/12/06 03:35:32;;;;;;;14.48;9.57;;;5.20;99.90;;;;;;2055631;28;20027;-69
2022/12/06 03:36:34;;;;;;;15.75;10.57;;;5.20;99.90;;;;;;2055541;28;20026;-69
2022/12/06 03:37:39;;;;;;;15.07;10.05;;;5.20;99.90;;;;;;2055806;28;20039;-70
2022/12/06 03:38:57;;;;;;;14.45;10.23;;;5.20;99.90;;;;;;2055862;28;20122;-68
2022/12/06 03:40:18;;;;;;;16.08;10.45;;;5.20;99.90;;;;;;2055721;28;20082;-68
2022/12/06 03:41:28;;;;;;;14.80;10.50;;;5.20;99.90;;;;;;2055755;28;20031;-69
2022/12/06 03:42:30;;;;;;;16.80;10.90;;;5.20;99.90;;;;;;2055863;28;20026;-70
2022/12/06 03:43:32;;;;;;;16.75;11.30;;;5.20;99.90;;;;;;2055604;28;20031;-69
2022/12/06 03:44:33;;;;;;;15.35;10.20;;;5.10;99.90;;;;;;2054600;28;20035;-69
2022/12/06 03:45:49;;;;;;;17.38;11.82;;;5.10;99.90;;;;;;2054879;28;20438;-69
2022/12/06 03:46:57;;;;;;;17.90;12.27;;;5.10;99.90;;;;;;2047072;28;20502;-69
2022/12/06 03:48:27;;;;;;;16.10;11.18;;;5.10;99.90;;;;;;2047248;29;20490;-69
2022/12/06 03:49:53;;;;;;;17.20;11.10;;;5.10;99.90;;;;;;2051526;28;20189;-68
2022/12/06 03:51:01;;;;;;;17.05;10.93;;;5.10;99.90;;;;;;2055916;28;20038;-70
2022/12/06 03:52:03;;;;;;;16.75;11.02;;;5.10;99.90;;;;;;2055956;28;20059;-69
2022/12/06 03:53:04;;;;;;;17.25;11.20;;;5.10;99.90;;;;;;2055778;28;20474;-68
2022/12/06 03:54:07;;;;;;;16.05;11.35;;;5.10;99.90;;;;;;2065013;28;20060;-68
2022/12/06 03:55:08;;;;;;;17.75;11.55;;;5.10;99.90;;;;;;2068537;28;20117;-69
2022/12/06 03:56:08;;;;;;;15.60;10.93;;;5.10;99.90;;;;;;2062895;28;20042;-68
2022/12/06 03:57:09;;;;;;;15.55;10.85;;;5.10;99.90;;;;;;2063334;28;20043;-69
2022/12/06 03:58:11;;;;;;;15.25;10.85;;;5.20;99.90;;;;;;2055953;28;20038;-69
2022/12/06 03:59:11;;;;;;;15.30;10.95;;;5.10;99.90;;;;;;2055222;28;20042;-69
2022/12/06 04:00:13;;;;;;;15.05;9.93;;;5.10;99.90;;;;;;2055044;28;20034;-68
2022/12/06 04:01:14;;;;;;;14.43;10.48;;;5.20;99.90;;;;;;2055505;28;20551;-69
2022/12/06 04:02:14;;;;;;;16.85;11.00;;;5.20;99.90;;;;;;2055768;28;20045;-69
2022/12/06 04:03:15;;;;;;;15.85;10.80;;;5.20;99.90;;;;;;2055827;28;20023;-69
2022/12/06 04:04:16;;;;;;;14.73;10.77;;;5.20;99.90;;;;;;2063057;28;20093;-68
2022/12/06 04:05:17;;;;;;;15.32;10.30;;;5.20;99.90;;;;;;2063137;28;20022;-68
2022/12/06 04:06:18;;;;;;;15.05;10.02;;;5.20;99.90;;;;;;2054842;28;20039;-69
2022/12/06 04:07:20;;;;;;;15.05;10.27;;;5.20;99.90;;;;;;2054887;28;20030;-69
2022/12/06 04:08:20;;;;;;;14.88;10.52;;;5.20;99.90;;;;;;2062866;28;20133;-69
2022/12/06 04:10:40;;;;;;;15.95;11.40;;;5.20;99.90;;;;;;2055360;28;20106;-68
2022/12/06 04:11:41;;;;;;;16.33;11.30;;;5.20;99.90;;;;;;2055127;28;20026;-68
2022/12/06 04:13:00;;;;;;;14.82;10.43;;;5.20;99.90;;;;;;2054954;28;20494;-68
2022/12/06 04:14:00;;;;;;;14.77;10.68;;;5.20;99.90;;;;;;2055009;28;20118;-68
2022/12/06 04:15:01;;;;;;;14.45;10.30;;;5.20;99.90;;;;;;2055356;28;20607;-68
2022/12/06 04:16:02;;;;;;;15.70;10.82;;;5.20;99.90;;;;;;2055303;28;20031;-68
2022/12/06 04:18:23;;;;;;;14.88;10.75;;;5.10;99.90;;;;;;2055511;28;20050;-69
2022/12/06 04:19:27;;;;;;;17.60;11.75;;;5.10;99.90;;;;;;2055228;28;20656;-69
2022/12/06 04:23:02;;;;;;;18.23;12.10;;;5.10;99.90;;;;;;2055588;28;20042;-68
2022/12/06 04:23:08;;;;;;;15.65;10.50;;;5.10;99.90;;;;;;2055346;28;20034;-68
2022/12/06 04:24:09;;;;;;;14.07;10.60;;;5.20;99.90;;;;;;2055589;28;20031;-69
2022/12/06 04:25:10;;;;;;;16.02;10.88;;;5.20;99.90;;;;;;2055427;28;20100;-68
2022/12/06 04:26:15;;;;;;;14.52;10.13;;;5.20;99.90;;;;;;2055121;28;20385;-68
2022/12/06 04:39:10;;;;;;;16.90;11.15;;;5.10;99.90;;;;;;2055322;28;20540;-68
2022/12/06 04:40:11;;;;;;;14.95;10.38;;;5.20;99.90;;;;;;2055454;28;20042;-68
2022/12/06 04:43:40;;;;;;;15.27;10.10;;;5.10;99.90;;;;;;2055307;28;20038;-68
2022/12/06 04:43:55;;;;;;;17.40;11.95;;;5.10;99.90;;;;;;2054175;28;20525;-68
2022/12/06 04:44:56;;;;;;;17.73;12.13;;;5.10;99.90;;;;;;2054318;28;20023;-69
2022/12/06 04:45:57;;;;;;;16.67;11.75;;;5.10;99.90;;;;;;2055362;28;20027;-69
2022/12/06 04:46:58;;;;;;;16.83;11.40;;;5.10;99.90;;;;;;2061519;28;20034;-69
2022/12/06 04:47:59;;;;;;;16.48;10.82;;;5.10;99.90;;;;;;2055229;28;20043;-68
2022/12/06 04:49:00;;;;;;;18.75;11.00;;;5.10;99.90;;;;;;2055037;28;20038;-67
2022/12/06 04:50:01;;;;;;;14.07;10.52;;;5.10;99.90;;;;;;2055557;28;20034;-68
2022/12/06 04:51:01;;;;;;;15.95;11.30;;;5.10;99.90;;;;;;2055504;28;20027;-68
2022/12/06 04:52:03;;;;;;;16.58;11.05;;;5.10;99.90;;;;;;2055791;28;20047;-68
2022/12/06 04:53:05;;;;;;;14.13;10.20;;;5.10;99.90;;;;;;2063060;28;20034;-68
2022/12/06 04:54:06;;;;;;;15.50;9.90;;;5.10;99.90;;;;;;2062903;28;20041;-68
2022/12/06 04:55:07;;;;;;;14.23;10.15;;;5.10;99.90;;;;;;2055959;28;20112;-68
2022/12/06 04:56:08;;;;;;;15.80;11.18;;;5.10;99.90;;;;;;2062649;28;20030;-68
2022/12/06 04:57:11;;;;;;;15.38;10.77;;;5.10;99.90;;;;;;2062972;28;20088;-71
2022/12/06 04:58:13;;;;;;;16.73;11.02;;;5.10;99.90;;;;;;2054803;28;20102;-68
2022/12/06 04:59:14;;;;;;;14.18;10.27;;;5.10;99.90;;;;;;2055028;28;20436;-68
2022/12/06 05:00:15;;;;;;;16.15;10.40;;;5.10;99.90;;;;;;2055610;28;20035;-68
2022/12/06 05:01:15;;;;;;;14.70;10.07;;;5.10;99.90;;;;;;2062623;28;20117;-69
2022/12/06 05:02:16;;;;;;;15.10;10.65;;;5.00;99.90;;;;;;2062799;28;20071;-67
2022/12/06 05:03:17;;;;;;;14.50;9.93;;;5.10;99.90;;;;;;2054872;28;20027;-70
2022/12/06 05:04:18;;;;;;;14.68;9.57;;;5.10;99.90;;;;;;2054681;28;20031;-69
2022/12/06 05:05:19;;;;;;;13.05;9.38;;;5.10;99.90;;;;;;2054708;28;20089;-68
2022/12/06 05:06:19;;;;;;;15.88;10.60;;;5.10;99.90;;;;;;2054741;28;20030;-69
2022/12/06 05:07:20;;;;;;;15.43;11.15;;;5.10;99.90;;;;;;2056406;28;20029;-68
2022/12/06 05:08:21;;;;;;;17.73;11.25;;;5.10;99.90;;;;;;2055647;28;20019;-68
2022/12/06 05:09:22;;;;;;;14.10;10.43;;;5.10;99.90;;;;;;2055201;28;20034;-68
2022/12/06 05:10:22;;;;;;;14.43;10.13;;;5.10;99.90;;;;;;2055644;28;20102;-68
2022/12/06 05:11:23;;;;;;;15.02;10.40;;;5.10;99.90;;;;;;2055537;28;20031;-68
2022/12/06 05:12:24;;;;;;;15.18;10.48;;;5.10;99.90;;;;;;2055614;28;20030;-67
2022/12/06 05:13:24;;;;;;;14.18;10.23;;;5.10;99.90;;;;;;2055612;28;20023;-68
2022/12/06 05:14:25;;;;;;;14.38;10.07;;;5.00;99.90;;;;;;2055397;28;20023;-67
2022/12/06 05:15:26;;;;;;;17.15;11.90;;;5.10;99.90;;;;;;2055666;28;20031;-68
2022/12/06 05:16:27;;;;;;;15.25;10.70;;;5.00;99.90;;;;;;2055440;28;20031;-69
2022/12/06 05:17:28;;;;;;;13.88;10.20;;;5.00;99.90;;;;;;2055692;28;20642;-68
2022/12/06 05:18:29;;;;;;;16.20;10.60;;;5.00;99.90;;;;;;2055430;28;20476;-68
2022/12/06 05:19:30;;;;;;;14.75;10.35;;;5.00;99.90;;;;;;2055533;28;20074;-69
2022/12/06 05:20:31;;;;;;;14.45;10.55;;;5.00;99.90;;;;;;2055256;28;20434;-70
2022/12/06 05:21:31;;;;;;;14.50;10.50;;;5.00;99.90;;;;;;2055380;28;20038;-70
2022/12/06 05:22:32;;;;;;;15.25;10.90;;;4.90;99.90;;;;;;2056213;28;20027;-70
2022/12/06 05:23:34;;;;;;;14.52;10.40;;;4.90;99.90;;;;;;2056444;28;20054;-69
2022/12/06 05:24:35;;;;;;;16.27;10.30;;;4.90;99.90;;;;;;2057145;28;20029;-69
2022/12/06 05:25:35;;;;;;;13.43;10.07;;;4.90;99.90;;;;;;2057213;28;20601;-70
2022/12/06 05:26:36;;;;;;;15.02;10.77;;;4.90;99.90;;;;;;2057051;28;20027;-69
2022/12/06 05:27:37;;;;;;;14.98;10.48;;;4.90;99.90;;;;;;2057184;28;20027;-69
2022/12/06 05:28:38;;;;;;;15.93;10.90;;;4.90;99.90;;;;;;2057351;28;20031;-69
2022/12/06 05:29:39;;;;;;;15.70;10.77;;;5.00;99.90;;;;;;2056591;28;20122;-69
2022/12/06 05:30:39;;;;;;;14.10;10.52;;;4.90;99.90;;;;;;2056478;28;20149;-69
2022/12/06 05:31:40;;;;;;;14.80;10.82;;;4.90;99.90;;;;;;2056869;28;20033;-70
2022/12/06 05:32:41;;;;;;;16.48;10.88;;;4.90;99.90;;;;;;2056984;28;20450;-69
2022/12/06 05:33:41;;;;;;;17.95;11.82;;;4.90;99.90;;;;;;2056946;28;20453;-69
2022/12/06 05:34:42;;;;;;;15.52;10.90;;;4.90;99.90;;;;;;2056904;28;20023;-68
2022/12/06 05:35:43;;;;;;;15.13;11.02;;;4.90;99.90;;;;;;2057013;28;20050;-69
2022/12/06 05:36:44;;;;;;;16.90;11.18;;;4.90;99.90;;;;;;2057386;28;20023;-70
2022/12/06 05:37:45;;;;;;;19.35;11.25;;;4.80;99.90;;;;;;2056169;28;20039;-69
2022/12/06 05:38:47;;;;;;;17.55;11.43;;;4.90;99.90;;;;;;2056628;28;20456;-69
2022/12/06 05:39:48;;;;;;;16.88;11.60;;;4.90;99.90;;;;;;2057042;28;20023;-69
2022/12/06 05:40:49;;;;;;;15.82;11.43;;;4.90;99.90;;;;;;2064751;28;20598;-69
2022/12/06 05:41:50;;;;;;;16.48;11.18;;;4.90;99.90;;;;;;2072548;28;20084;-69
2022/12/06 05:42:51;;;;;;;16.25;10.48;;;4.90;99.90;;;;;;2057832;28;20022;-70
2022/12/06 05:43:51;;;;;;;15.73;11.32;;;4.90;99.90;;;;;;2057996;28;20046;-70
2022/12/06 05:44:52;;;;;;;17.38;11.90;;;4.90;99.90;;;;;;2057293;28;20049;-69
2022/12/06 05:45:53;;;;;;;17.65;11.32;;;4.90;99.90;;;;;;2050207;28;20077;-70
2022/12/06 05:46:53;;;;;;;16.90;11.52;;;4.90;99.90;;;;;;2056986;28;20499;-69
2022/12/06 05:47:54;;;;;;;16.67;11.70;;;4.90;99.90;;;;;;2060008;28;20346;-69
2022/12/06 05:48:55;;;;;;;17.52;12.10;;;4.90;99.90;;;;;;2056880;28;20019;-71
2022/12/06 05:49:55;;;;;;;16.95;11.57;;;5.00;99.90;;;;;;2060078;28;20034;-70
2022/12/06 05:50:56;;;;;;;15.73;11.18;;;4.90;99.90;;;;;;2056366;28;20045;-71
2022/12/06 05:51:57;;;;;;;17.30;12.05;;;5.00;99.90;;;;;;2054571;28;20066;-70